sensor_id;sensor_type;location;lat;lon;timestamp;pressure;altitude;pressure_sealevel;temperature;humidity
28267;BME280;15525;45.568;5.448;2023-10-13T00:00:30;98354.88;;;21.01;58.02
28267;BME280;15525;45.568;5.448;2023-10-13T00:02:59;98345.97;;;20.92;58.25
28267;BME280;15525;45.568;5.448;2023-10-13T00:05:28;98350.91;;;20.99;58.12
28267;BME280;15525;45.568;5.448;2023-10-13T00:07:59;98335.63;;;21.06;57.43
28267;BME280;15525;45.568;5.448;2023-10-13T00:10:27;98344.97;;;20.97;58.25
28267;BME280;15525;45.568;5.448;2023-10-13T00:12:53;98339.53;;;20.97;57.88
28267;BME280;15525;45.568;5.448;2023-10-13T00:15:18;98346.41;;;21.03;57.60
28267;BME280;15525;45.568;5.448;2023-10-13T00:17:53;98338.75;;;20.96;57.43
28267;BME280;15525;45.568;5.448;2023-10-13T00:20:21;98358.28;;;20.89;57.80
28267;BME280;15525;45.568;5.448;2023-10-13T00:23:03;98341.31;;;20.55;58.99
28267;BME280;15525;45.568;5.448;2023-10-13T00:25:28;98352.28;;;20.67;58.72
28267;BME280;15525;45.568;5.448;2023-10-13T00:27:54;98349.41;;;20.72;58.16
28267;BME280;15525;45.568;5.448;2023-10-13T00:30:20;98345.06;;;20.71;58.22
28267;BME280;15525;45.568;5.448;2023-10-13T00:32:58;98349.56;;;20.67;58.34
28267;BME280;15525;45.568;5.448;2023-10-13T00:35:26;98355.31;;;20.74;58.22
28267;BME280;15525;45.568;5.448;2023-10-13T00:37:55;98345.88;;;20.71;58.36
28267;BME280;15525;45.568;5.448;2023-10-13T00:40:23;98354.50;;;20.73;58.15
28267;BME280;15525;45.568;5.448;2023-10-13T00:42:55;98344.31;;;20.62;58.27
28267;BME280;15525;45.568;5.448;2023-10-13T00:45:30;98351.19;;;20.59;58.11
28267;BME280;15525;45.568;5.448;2023-10-13T00:47:58;98356.81;;;20.54;58.64
28267;BME280;15525;45.568;5.448;2023-10-13T00:50:26;98367.34;;;20.64;58.17
28267;BME280;15525;45.568;5.448;2023-10-13T00:52:52;98355.06;;;20.58;58.36
28267;BME280;15525;45.568;5.448;2023-10-13T00:55:19;98368.00;;;20.61;58.01
28267;BME280;15525;45.568;5.448;2023-10-13T00:57:53;98352.22;;;20.46;58.16
28267;BME280;15525;45.568;5.448;2023-10-13T01:00:22;98354.31;;;20.41;58.37
28267;BME280;15525;45.568;5.448;2023-10-13T01:02:53;98357.81;;;20.41;58.33
28267;BME280;15525;45.568;5.448;2023-10-13T01:05:25;98373.09;;;20.17;59.36
28267;BME280;15525;45.568;5.448;2023-10-13T01:07:51;98353.44;;;20.11;59.18
28267;BME280;15525;45.568;5.448;2023-10-13T01:10:20;98358.56;;;20.13;59.45
28267;BME280;15525;45.568;5.448;2023-10-13T01:12:51;98360.59;;;20.16;59.40
28267;BME280;15525;45.568;5.448;2023-10-13T01:15:18;98353.75;;;20.10;59.12
28267;BME280;15525;45.568;5.448;2023-10-13T01:17:46;98348.31;;;20.10;59.39
28267;BME280;15525;45.568;5.448;2023-10-13T01:20:15;98356.63;;;20.22;58.71
28267;BME280;15525;45.568;5.448;2023-10-13T01:22:53;98349.72;;;20.16;58.98
28267;BME280;15525;45.568;5.448;2023-10-13T01:25:25;98360.59;;;20.07;58.94
28267;BME280;15525;45.568;5.448;2023-10-13T01:27:54;98363.47;;;19.94;59.25
28267;BME280;15525;45.568;5.448;2023-10-13T01:30:20;98352.47;;;19.90;58.85
28267;BME280;15525;45.568;5.448;2023-10-13T01:32:50;98352.13;;;20.00;58.69
28267;BME280;15525;45.568;5.448;2023-10-13T01:35:17;98336.78;;;20.04;58.24
28267;BME280;15525;45.568;5.448;2023-10-13T01:38:00;98331.03;;;20.14;57.92
28267;BME280;15525;45.568;5.448;2023-10-13T01:40:26;98346.19;;;20.07;57.69
28267;BME280;15525;45.568;5.448;2023-10-13T01:42:54;98336.16;;;19.90;57.77
28267;BME280;15525;45.568;5.448;2023-10-13T01:45:21;98335.81;;;20.00;57.66
28267;BME280;15525;45.568;5.448;2023-10-13T01:47:46;98333.28;;;19.95;57.36
28267;BME280;15525;45.568;5.448;2023-10-13T01:50:16;98334.28;;;19.65;58.35
28267;BME280;15525;45.568;5.448;2023-10-13T01:52:47;98320.19;;;19.80;58.01
28267;BME280;15525;45.568;5.448;2023-10-13T01:55:13;98330.38;;;20.00;57.38
28267;BME280;15525;45.568;5.448;2023-10-13T01:57:42;98316.03;;;20.00;57.14
28267;BME280;15525;45.568;5.448;2023-10-13T02:00:13;98324.81;;;19.97;57.17
28267;BME280;15525;45.568;5.448;2023-10-13T02:02:47;98322.13;;;19.88;57.08
28267;BME280;15525;45.568;5.448;2023-10-13T02:05:16;98316.81;;;19.92;57.10
28267;BME280;15525;45.568;5.448;2023-10-13T02:07:42;98321.31;;;19.96;57.20
28267;BME280;15525;45.568;5.448;2023-10-13T02:10:11;98329.47;;;19.96;57.29
28267;BME280;15525;45.568;5.448;2023-10-13T02:12:37;98319.69;;;19.95;57.38
28267;BME280;15525;45.568;5.448;2023-10-13T02:15:12;98316.81;;;19.92;57.21
28267;BME280;15525;45.568;5.448;2023-10-13T02:17:59;98317.16;;;19.90;57.28
28267;BME280;15525;45.568;5.448;2023-10-13T02:20:25;98311.38;;;19.92;57.46
28267;BME280;15525;45.568;5.448;2023-10-13T02:22:55;98325.00;;;19.83;57.17
28267;BME280;15525;45.568;5.448;2023-10-13T02:25:21;98288.09;;;19.65;57.78
28267;BME280;15525;45.568;5.448;2023-10-13T02:28:08;98305.38;;;19.69;58.16
28267;BME280;15525;45.568;5.448;2023-10-13T02:30:44;98304.56;;;19.60;58.56
28267;BME280;15525;45.568;5.448;2023-10-13T02:33:15;98299.91;;;19.78;58.18
28267;BME280;15525;45.568;5.448;2023-10-13T02:35:46;98307.56;;;19.84;58.10
28267;BME280;15525;45.568;5.448;2023-10-13T02:38:22;98302.78;;;19.81;58.29
28267;BME280;15525;45.568;5.448;2023-10-13T02:41:01;98299.72;;;19.83;58.30
28267;BME280;15525;45.568;5.448;2023-10-13T02:43:32;98292.84;;;19.85;58.33
28267;BME280;15525;45.568;5.448;2023-10-13T02:45:58;98297.78;;;20.00;58.37
28267;BME280;15525;45.568;5.448;2023-10-13T02:48:25;98285.63;;;19.98;57.98
28267;BME280;15525;45.568;5.448;2023-10-13T02:50:56;98291.41;;;19.96;58.03
28267;BME280;15525;45.568;5.448;2023-10-13T02:53:22;98283.25;;;19.88;58.37
28267;BME280;15525;45.568;5.448;2023-10-13T02:55:55;98290.47;;;19.92;58.35
28267;BME280;15525;45.568;5.448;2023-10-13T02:58:23;98277.69;;;19.84;57.84
28267;BME280;15525;45.568;5.448;2023-10-13T03:01:06;98278.94;;;19.87;58.00
28267;BME280;15525;45.568;5.448;2023-10-13T03:03:51;98272.56;;;19.83;57.91
28267;BME280;15525;45.568;5.448;2023-10-13T03:06:20;98276.28;;;19.78;58.52
28267;BME280;15525;45.568;5.448;2023-10-13T03:09:03;98282.16;;;19.80;59.03
28267;BME280;15525;45.568;5.448;2023-10-13T03:11:48;98287.28;;;19.73;59.35
28267;BME280;15525;45.568;5.448;2023-10-13T03:14:23;98286.28;;;19.95;59.13
28267;BME280;15525;45.568;5.448;2023-10-13T03:17:02;98278.59;;;19.97;58.91
28267;BME280;15525;45.568;5.448;2023-10-13T03:19:31;98277.97;;;20.00;58.46
28267;BME280;15525;45.568;5.448;2023-10-13T03:22:05;98281.19;;;19.93;59.35
28267;BME280;15525;45.568;5.448;2023-10-13T03:24:35;98284.34;;;19.95;59.71
28267;BME280;15525;45.568;5.448;2023-10-13T03:27:04;98268.69;;;20.09;58.84
28267;BME280;15525;45.568;5.448;2023-10-13T03:29:40;98279.06;;;20.16;58.60
28267;BME280;15525;45.568;5.448;2023-10-13T03:32:12;98276.81;;;20.18;58.43
28267;BME280;15525;45.568;5.448;2023-10-13T03:34:41;98269.81;;;20.00;59.13
28267;BME280;15525;45.568;5.448;2023-10-13T03:37:21;98263.88;;;20.06;58.98
28267;BME280;15525;45.568;5.448;2023-10-13T03:40:10;98277.97;;;20.08;59.01
28267;BME280;15525;45.568;5.448;2023-10-13T03:42:44;98281.63;;;19.95;59.61
28267;BME280;15525;45.568;5.448;2023-10-13T03:45:23;98277.03;;;19.79;62.60
28267;BME280;15525;45.568;5.448;2023-10-13T03:47:50;98274.38;;;20.33;61.20
28267;BME280;15525;45.568;5.448;2023-10-13T03:50:17;98278.19;;;20.32;59.50
28267;BME280;15525;45.568;5.448;2023-10-13T03:52:55;98270.22;;;20.27;59.05
28267;BME280;15525;45.568;5.448;2023-10-13T03:55:26;98263.69;;;20.20;59.37
28267;BME280;15525;45.568;5.448;2023-10-13T03:57:54;98262.16;;;20.10;59.30
28267;BME280;15525;45.568;5.448;2023-10-13T04:00:21;98277.47;;;20.15;59.97
28267;BME280;15525;45.568;5.448;2023-10-13T04:02:49;98271.06;;;20.19;59.85
28267;BME280;15525;45.568;5.448;2023-10-13T04:05:35;98275.38;;;20.20;60.33
28267;BME280;15525;45.568;5.448;2023-10-13T04:08:08;98264.81;;;20.19;60.24
28267;BME280;15525;45.568;5.448;2023-10-13T04:11:02;98247.09;;;20.13;59.93
28267;BME280;15525;45.568;5.448;2023-10-13T04:13:46;98256.97;;;20.17;59.52
28267;BME280;15525;45.568;5.448;2023-10-13T04:16:34;98254.44;;;20.12;59.47
28267;BME280;15525;45.568;5.448;2023-10-13T04:19:02;98256.34;;;20.12;59.59
28267;BME280;15525;45.568;5.448;2023-10-13T04:21:27;98246.63;;;20.02;59.75
28267;BME280;15525;45.568;5.448;2023-10-13T04:24:09;98262.59;;;20.12;59.82
28267;BME280;15525;45.568;5.448;2023-10-13T04:26:50;98250.16;;;20.11;59.97
28267;BME280;15525;45.568;5.448;2023-10-13T04:29:35;98257.19;;;20.04;59.92
28267;BME280;15525;45.568;5.448;2023-10-13T04:32:19;98264.72;;;19.90;60.38
28267;BME280;15525;45.568;5.448;2023-10-13T04:35:04;98257.00;;;20.00;60.21
28267;BME280;15525;45.568;5.448;2023-10-13T04:37:44;98267.09;;;19.91;60.55
28267;BME280;15525;45.568;5.448;2023-10-13T04:40:20;98276.88;;;19.84;60.73
28267;BME280;15525;45.568;5.448;2023-10-13T04:42:53;98268.53;;;19.89;60.90
28267;BME280;15525;45.568;5.448;2023-10-13T04:45:22;98268.59;;;19.72;62.01
28267;BME280;15525;45.568;5.448;2023-10-13T04:47:58;98266.78;;;19.93;61.12
28267;BME280;15525;45.568;5.448;2023-10-13T04:50:40;98265.00;;;19.97;61.45
28267;BME280;15525;45.568;5.448;2023-10-13T04:53:15;98252.53;;;20.04;62.25
28267;BME280;15525;45.568;5.448;2023-10-13T04:55:56;98253.66;;;20.03;62.24
28267;BME280;15525;45.568;5.448;2023-10-13T04:58:28;98249.66;;;20.01;61.12
28267;BME280;15525;45.568;5.448;2023-10-13T05:01:31;98249.81;;;20.13;60.88
28267;BME280;15525;45.568;5.448;2023-10-13T05:04:15;98249.03;;;20.04;61.89
28267;BME280;15525;45.568;5.448;2023-10-13T05:06:55;98245.66;;;20.15;61.22
28267;BME280;15525;45.568;5.448;2023-10-13T05:09:39;98251.56;;;20.17;61.18
28267;BME280;15525;45.568;5.448;2023-10-13T05:12:23;98242.00;;;20.11;60.86
28267;BME280;15525;45.568;5.448;2023-10-13T05:15:07;98238.50;;;19.85;61.58
28267;BME280;15525;45.568;5.448;2023-10-13T05:17:51;98242.00;;;19.94;61.48
28267;BME280;15525;45.568;5.448;2023-10-13T05:20:35;98249.59;;;19.63;62.52
28267;BME280;15525;45.568;5.448;2023-10-13T05:23:19;98243.53;;;19.66;62.38
28267;BME280;15525;45.568;5.448;2023-10-13T05:26:03;98251.00;;;19.78;61.71
28267;BME280;15525;45.568;5.448;2023-10-13T05:28:47;98246.06;;;19.71;62.37
28267;BME280;15525;45.568;5.448;2023-10-13T05:31:32;98252.44;;;19.75;62.27
28267;BME280;15525;45.568;5.448;2023-10-13T05:34:15;98251.31;;;19.76;62.76
28267;BME280;15525;45.568;5.448;2023-10-13T05:36:59;98246.84;;;19.80;62.43
28267;BME280;15525;45.568;5.448;2023-10-13T05:39:43;98255.31;;;19.79;63.00
28267;BME280;15525;45.568;5.448;2023-10-13T05:42:27;98249.91;;;20.25;63.03
28267;BME280;15525;45.568;5.448;2023-10-13T05:45:11;98258.75;;;20.22;61.86
28267;BME280;15525;45.568;5.448;2023-10-13T05:47:42;98268.00;;;20.21;61.35
28267;BME280;15525;45.568;5.448;2023-10-13T05:50:12;98253.63;;;20.12;60.93
28267;BME280;15525;45.568;5.448;2023-10-13T05:52:49;98259.53;;;20.05;61.33
28267;BME280;15525;45.568;5.448;2023-10-13T05:55:28;98257.50;;;20.02;61.09
28267;BME280;15525;45.568;5.448;2023-10-13T05:58:12;98262.34;;;19.88;60.98
28267;BME280;15525;45.568;5.448;2023-10-13T06:00:56;98272.25;;;19.84;61.53
28267;BME280;15525;45.568;5.448;2023-10-13T06:03:40;98275.00;;;19.76;62.40
28267;BME280;15525;45.568;5.448;2023-10-13T06:06:25;98270.34;;;19.76;62.14
28267;BME280;15525;45.568;5.448;2023-10-13T06:09:09;98278.50;;;19.85;61.77
28267;BME280;15525;45.568;5.448;2023-10-13T06:11:53;98279.75;;;19.87;61.13
28267;BME280;15525;45.568;5.448;2023-10-13T06:14:37;98282.00;;;19.85;62.21
28267;BME280;15525;45.568;5.448;2023-10-13T06:17:21;98284.22;;;19.92;61.67
28267;BME280;15525;45.568;5.448;2023-10-13T06:20:05;98285.50;;;19.94;61.30
28267;BME280;15525;45.568;5.448;2023-10-13T06:22:50;98286.13;;;20.00;61.08
28267;BME280;15525;45.568;5.448;2023-10-13T06:25:33;98286.47;;;19.90;61.99
28267;BME280;15525;45.568;5.448;2023-10-13T06:28:18;98291.09;;;19.89;61.46
28267;BME280;15525;45.568;5.448;2023-10-13T06:31:04;98288.06;;;19.91;61.56
28267;BME280;15525;45.568;5.448;2023-10-13T06:33:34;98290.91;;;19.94;61.29
28267;BME280;15525;45.568;5.448;2023-10-13T06:36:01;98300.97;;;19.94;61.95
28267;BME280;15525;45.568;5.448;2023-10-13T06:38:27;98292.34;;;20.00;62.26
28267;BME280;15525;45.568;5.448;2023-10-13T06:41:04;98297.00;;;20.08;62.20
28267;BME280;15525;45.568;5.448;2023-10-13T06:43:36;98305.59;;;20.19;61.53
28267;BME280;15525;45.568;5.448;2023-10-13T06:46:11;98314.88;;;20.18;61.60
28267;BME280;15525;45.568;5.448;2023-10-13T06:48:48;98302.56;;;20.20;61.01
28267;BME280;15525;45.568;5.448;2023-10-13T06:51:15;98305.91;;;20.17;61.43
28267;BME280;15525;45.568;5.448;2023-10-13T06:53:46;98299.34;;;20.27;61.60
28267;BME280;15525;45.568;5.448;2023-10-13T06:56:17;98293.59;;;20.28;60.87
28267;BME280;15525;45.568;5.448;2023-10-13T06:59:02;98269.81;;;20.17;61.69
28267;BME280;15525;45.568;5.448;2023-10-13T07:01:29;98299.63;;;20.34;61.30
28267;BME280;15525;45.568;5.448;2023-10-13T07:03:55;98308.22;;;20.44;61.66
28267;BME280;15525;45.568;5.448;2023-10-13T07:06:29;98305.97;;;19.92;64.52
28267;BME280;15525;45.568;5.448;2023-10-13T07:08:56;98321.78;;;20.91;62.23
28267;BME280;15525;45.568;5.448;2023-10-13T07:11:25;98310.88;;;21.20;60.58
28267;BME280;15525;45.568;5.448;2023-10-13T07:14:03;98303.94;;;21.31;60.59
28267;BME280;15525;45.568;5.448;2023-10-13T07:16:55;98319.03;;;21.61;60.14
28267;BME280;15525;45.568;5.448;2023-10-13T07:19:24;98314.78;;;21.92;59.01
28267;BME280;15525;45.568;5.448;2023-10-13T07:21:54;98327.50;;;22.21;58.68
28267;BME280;15525;45.568;5.448;2023-10-13T07:24:25;98315.81;;;22.44;57.96
28267;BME280;15525;45.568;5.448;2023-10-13T07:26:52;98315.41;;;22.66;57.39
28267;BME280;15525;45.568;5.448;2023-10-13T07:29:27;98327.13;;;22.79;56.93
28267;BME280;15525;45.568;5.448;2023-10-13T07:31:53;98319.75;;;22.79;57.09
28267;BME280;15525;45.568;5.448;2023-10-13T07:34:18;98314.63;;;22.90;56.82
28267;BME280;15525;45.568;5.448;2023-10-13T07:36:56;98317.59;;;22.73;57.00
28267;BME280;15525;45.568;5.448;2023-10-13T07:39:29;98306.66;;;22.97;56.78
28267;BME280;15525;45.568;5.448;2023-10-13T07:41:58;98326.44;;;23.30;55.74
28267;BME280;15525;45.568;5.448;2023-10-13T07:44:31;98326.00;;;23.28;55.64
28267;BME280;15525;45.568;5.448;2023-10-13T07:46:59;98337.59;;;23.37;55.42
28267;BME280;15525;45.568;5.448;2023-10-13T07:49:30;98323.94;;;23.01;55.73
28267;BME280;15525;45.568;5.448;2023-10-13T07:52:02;98346.97;;;21.58;59.84
28267;BME280;15525;45.568;5.448;2023-10-13T07:55:00;98332.75;;;22.38;57.83
28267;BME280;15525;45.568;5.448;2023-10-13T07:57:37;98345.84;;;22.44;57.46
28267;BME280;15525;45.568;5.448;2023-10-13T08:00:18;98341.19;;;22.45;57.66
28267;BME280;15525;45.568;5.448;2023-10-13T08:02:59;98346.47;;;23.10;56.44
28267;BME280;15525;45.568;5.448;2023-10-13T08:05:52;98341.25;;;23.68;55.14
28267;BME280;15525;45.568;5.448;2023-10-13T08:08:27;98326.59;;;24.16;53.67
28267;BME280;15525;45.568;5.448;2023-10-13T08:11:06;98342.47;;;24.53;53.56
28267;BME280;15525;45.568;5.448;2023-10-13T08:13:57;98348.06;;;24.88;52.95
28267;BME280;15525;45.568;5.448;2023-10-13T08:16:28;98338.41;;;25.09;51.69
28267;BME280;15525;45.568;5.448;2023-10-13T08:19:17;98336.13;;;24.96;51.25
28267;BME280;15525;45.568;5.448;2023-10-13T08:21:47;98341.47;;;23.75;53.92
28267;BME280;15525;45.568;5.448;2023-10-13T08:24:24;98327.13;;;24.06;53.31
28267;BME280;15525;45.568;5.448;2023-10-13T08:26:54;98344.94;;;24.00;53.03
28267;BME280;15525;45.568;5.448;2023-10-13T08:29:22;98344.59;;;23.89;53.40
28267;BME280;15525;45.568;5.448;2023-10-13T08:31:49;98337.63;;;24.04;53.36
28267;BME280;15525;45.568;5.448;2023-10-13T08:34:34;98338.94;;;24.99;52.14
28267;BME280;15525;45.568;5.448;2023-10-13T08:37:12;98330.50;;;24.15;52.72
28267;BME280;15525;45.568;5.448;2023-10-13T08:39:54;98329.78;;;24.61;52.30
28267;BME280;15525;45.568;5.448;2023-10-13T08:42:30;98324.63;;;25.06;51.50
28267;BME280;15525;45.568;5.448;2023-10-13T08:45:15;98320.91;;;25.14;51.17
28267;BME280;15525;45.568;5.448;2023-10-13T08:47:54;98323.56;;;25.45;50.44
28267;BME280;15525;45.568;5.448;2023-10-13T08:50:46;98327.00;;;25.23;50.16
28267;BME280;15525;45.568;5.448;2023-10-13T08:56:04;98318.56;;;25.66;48.89
28267;BME280;15525;45.568;5.448;2023-10-13T08:58:46;98314.34;;;25.34;50.31
28267;BME280;15525;45.568;5.448;2023-10-13T09:01:25;98299.50;;;25.92;49.88
28267;BME280;15525;45.568;5.448;2023-10-13T09:04:13;98311.22;;;26.30;48.26
28267;BME280;15525;45.568;5.448;2023-10-13T09:06:58;98317.13;;;26.74;47.99
28267;BME280;15525;45.568;5.448;2023-10-13T09:09:34;98307.16;;;26.66;46.71
28267;BME280;15525;45.568;5.448;2023-10-13T09:12:13;98301.91;;;26.80;46.72
28267;BME280;15525;45.568;5.448;2023-10-13T09:14:40;98316.63;;;25.66;48.48
28267;BME280;15525;45.568;5.448;2023-10-13T09:17:11;98308.09;;;26.32;48.13
28267;BME280;15525;45.568;5.448;2023-10-13T09:19:49;98300.16;;;26.27;47.56
28267;BME280;15525;45.568;5.448;2023-10-13T09:22:29;98275.25;;;25.94;47.83
28267;BME280;15525;45.568;5.448;2023-10-13T09:25:02;98295.66;;;26.38;47.07
28267;BME280;15525;45.568;5.448;2023-10-13T09:27:30;98316.13;;;25.26;48.65
28267;BME280;15525;45.568;5.448;2023-10-13T09:30:02;98317.97;;;26.14;47.40
28267;BME280;15525;45.568;5.448;2023-10-13T09:32:46;98303.81;;;26.12;46.98
28267;BME280;15525;45.568;5.448;2023-10-13T09:35:22;98295.22;;;26.36;47.19
28267;BME280;15525;45.568;5.448;2023-10-13T09:37:52;98299.94;;;27.06;45.56
28267;BME280;15525;45.568;5.448;2023-10-13T09:40:21;98291.38;;;27.67;44.92
28267;BME280;15525;45.568;5.448;2023-10-13T09:42:55;98302.53;;;27.18;44.60
28267;BME280;15525;45.568;5.448;2023-10-13T09:45:29;98300.81;;;27.36;44.07
28267;BME280;15525;45.568;5.448;2023-10-13T09:48:02;98293.00;;;27.42;43.92
28267;BME280;15525;45.568;5.448;2023-10-13T09:50:36;98283.31;;;27.51;43.89
28267;BME280;15525;45.568;5.448;2023-10-13T09:53:04;98291.69;;;27.58;43.69
28267;BME280;15525;45.568;5.448;2023-10-13T09:55:36;98287.94;;;27.18;43.39
28267;BME280;15525;45.568;5.448;2023-10-13T09:58:08;98287.75;;;27.04;44.55
28267;BME280;15525;45.568;5.448;2023-10-13T10:00:42;98271.22;;;27.85;43.32
28267;BME280;15525;45.568;5.448;2023-10-13T10:03:12;98259.56;;;27.10;43.64
28267;BME280;15525;45.568;5.448;2023-10-13T10:05:42;98260.06;;;27.78;42.75
28267;BME280;15525;45.568;5.448;2023-10-13T10:08:23;98277.25;;;27.68;42.42
28267;BME280;15525;45.568;5.448;2023-10-13T10:11:04;98289.34;;;28.70;42.32
28267;BME280;15525;45.568;5.448;2023-10-13T10:13:52;98283.28;;;27.48;42.42
28267;BME280;15525;45.568;5.448;2023-10-13T10:16:35;98283.03;;;28.26;41.98
28267;BME280;15525;45.568;5.448;2023-10-13T10:19:02;98275.91;;;27.85;42.09
28267;BME280;15525;45.568;5.448;2023-10-13T10:21:35;98267.78;;;27.95;42.41
28267;BME280;15525;45.568;5.448;2023-10-13T10:24:01;98263.34;;;27.25;43.20
28267;BME280;15525;45.568;5.448;2023-10-13T10:26:32;98269.75;;;27.65;42.76
28267;BME280;15525;45.568;5.448;2023-10-13T10:28:58;98255.84;;;27.84;42.14
28267;BME280;15525;45.568;5.448;2023-10-13T10:31:31;98261.34;;;28.61;40.80
28267;BME280;15525;45.568;5.448;2023-10-13T10:34:11;98262.59;;;29.28;40.44
28267;BME280;15525;45.568;5.448;2023-10-13T10:36:38;98269.22;;;27.86;41.47
28267;BME280;15525;45.568;5.448;2023-10-13T10:39:08;98259.50;;;28.35;41.02
28267;BME280;15525;45.568;5.448;2023-10-13T10:41:34;98260.25;;;27.92;41.82
28267;BME280;15525;45.568;5.448;2023-10-13T10:44:15;98256.25;;;28.67;40.58
28267;BME280;15525;45.568;5.448;2023-10-13T10:46:42;98259.19;;;28.00;41.59
28267;BME280;15525;45.568;5.448;2023-10-13T10:49:20;98248.81;;;28.30;41.57
28267;BME280;15525;45.568;5.448;2023-10-13T10:51:57;98241.22;;;27.47;41.85
28267;BME280;15525;45.568;5.448;2023-10-13T10:54:23;98235.03;;;28.27;41.30
28267;BME280;15525;45.568;5.448;2023-10-13T10:56:55;98238.00;;;28.48;40.47
28267;BME280;15525;45.568;5.448;2023-10-13T10:59:21;98238.53;;;28.24;41.00
28267;BME280;15525;45.568;5.448;2023-10-13T11:01:50;98238.97;;;28.26;41.12
28267;BME280;15525;45.568;5.448;2023-10-13T11:04:19;98237.81;;;27.57;41.44
28267;BME280;15525;45.568;5.448;2023-10-13T11:06:56;98233.41;;;27.82;40.91
28267;BME280;15525;45.568;5.448;2023-10-13T11:09:33;98227.97;;;28.29;40.61
28267;BME280;15525;45.568;5.448;2023-10-13T11:14:31;98229.78;;;29.09;40.08
28267;BME280;15525;45.568;5.448;2023-10-13T11:16:58;98225.25;;;28.80;39.89
28267;BME280;15525;45.568;5.448;2023-10-13T11:19:35;98237.22;;;28.48;40.25
28267;BME280;15525;45.568;5.448;2023-10-13T11:22:20;98229.00;;;29.09;39.25
28267;BME280;15525;45.568;5.448;2023-10-13T11:25:03;98215.06;;;29.59;38.49
28267;BME280;15525;45.568;5.448;2023-10-13T11:27:41;98195.38;;;29.68;38.47
28267;BME280;15525;45.568;5.448;2023-10-13T11:30:18;98208.22;;;29.32;39.19
28267;BME280;15525;45.568;5.448;2023-10-13T11:35:23;98210.50;;;27.75;41.60
28267;BME280;15525;45.568;5.448;2023-10-13T11:37:49;98209.16;;;27.95;41.38
28267;BME280;15525;45.568;5.448;2023-10-13T11:40:34;98227.94;;;27.86;41.13
28267;BME280;15525;45.568;5.448;2023-10-13T11:43:10;98185.06;;;28.79;40.17
28267;BME280;15525;45.568;5.448;2023-10-13T11:45:40;98200.66;;;28.10;40.02
28267;BME280;15525;45.568;5.448;2023-10-13T11:48:19;98198.88;;;27.88;40.87
28267;BME280;15525;45.568;5.448;2023-10-13T11:51:00;98187.94;;;28.97;39.50
28267;BME280;15525;45.568;5.448;2023-10-13T11:53:26;98189.09;;;29.67;38.42
28267;BME280;15525;45.568;5.448;2023-10-13T11:55:55;98181.06;;;29.45;38.45
28267;BME280;15525;45.568;5.448;2023-10-13T11:58:21;98172.31;;;29.15;39.00
28267;BME280;15525;45.568;5.448;2023-10-13T12:00:46;98172.31;;;29.18;39.64
28267;BME280;15525;45.568;5.448;2023-10-13T12:03:44;98168.16;;;29.66;38.43
28267;BME280;15525;45.568;5.448;2023-10-13T12:06:29;98166.81;;;29.18;39.41
28267;BME280;15525;45.568;5.448;2023-10-13T12:09:08;98176.31;;;29.35;38.90
28267;BME280;15525;45.568;5.448;2023-10-13T12:11:43;98164.75;;;28.40;40.38
28267;BME280;15525;45.568;5.448;2023-10-13T12:14:11;98163.84;;;28.29;40.55
28267;BME280;15525;45.568;5.448;2023-10-13T12:16:49;98153.75;;;29.08;40.09
28267;BME280;15525;45.568;5.448;2023-10-13T12:19:25;98162.53;;;28.63;39.73
28267;BME280;15525;45.568;5.448;2023-10-13T12:21:54;98157.19;;;28.37;40.79
28267;BME280;15525;45.568;5.448;2023-10-13T12:27:16;98144.66;;;27.96;41.44
28267;BME280;15525;45.568;5.448;2023-10-13T12:29:47;98137.78;;;27.76;41.60
28267;BME280;15525;45.568;5.448;2023-10-13T12:32:13;98128.44;;;28.31;41.28
28267;BME280;15525;45.568;5.448;2023-10-13T12:34:40;98132.06;;;29.03;39.97
28267;BME280;15525;45.568;5.448;2023-10-13T12:37:25;98134.47;;;29.08;39.68
28267;BME280;15525;45.568;5.448;2023-10-13T12:40:06;98128.78;;;28.80;39.88
28267;BME280;15525;45.568;5.448;2023-10-13T12:42:51;98119.41;;;28.95;39.77
28267;BME280;15525;45.568;5.448;2023-10-13T12:45:42;98123.91;;;29.31;38.76
28267;BME280;15525;45.568;5.448;2023-10-13T12:48:27;98117.47;;;29.03;38.60
28267;BME280;15525;45.568;5.448;2023-10-13T12:51:11;98116.88;;;28.66;39.66
28267;BME280;15525;45.568;5.448;2023-10-13T12:53:52;98103.22;;;28.90;39.98
28267;BME280;15525;45.568;5.448;2023-10-13T12:56:19;98097.13;;;29.39;38.84
28267;BME280;15525;45.568;5.448;2023-10-13T12:58:54;98117.97;;;29.29;39.44
28267;BME280;15525;45.568;5.448;2023-10-13T13:01:29;98097.19;;;29.84;38.01
28267;BME280;15525;45.568;5.448;2023-10-13T13:04:07;98103.91;;;28.66;39.56
28267;BME280;15525;45.568;5.448;2023-10-13T13:06:37;98101.41;;;29.22;39.06
28267;BME280;15525;45.568;5.448;2023-10-13T13:09:02;98086.03;;;29.28;39.17
28267;BME280;15525;45.568;5.448;2023-10-13T13:11:28;98082.94;;;29.47;38.57
28267;BME280;15525;45.568;5.448;2023-10-13T13:13:56;98084.78;;;29.01;39.76
28267;BME280;15525;45.568;5.448;2023-10-13T13:16:22;98082.56;;;28.56;40.26
28267;BME280;15525;45.568;5.448;2023-10-13T13:18:50;98083.94;;;28.90;39.81
28267;BME280;15525;45.568;5.448;2023-10-13T13:21:16;98079.47;;;29.71;38.58
28267;BME280;15525;45.568;5.448;2023-10-13T13:23:52;98062.47;;;29.48;38.95
28267;BME280;15525;45.568;5.448;2023-10-13T13:26:23;98070.69;;;29.27;38.83
28267;BME280;15525;45.568;5.448;2023-10-13T13:28:52;98068.66;;;28.38;40.70
28267;BME280;15525;45.568;5.448;2023-10-13T13:31:21;98077.59;;;28.18;40.42
28267;BME280;15525;45.568;5.448;2023-10-13T13:33:55;98075.56;;;28.11;40.51
28267;BME280;15525;45.568;5.448;2023-10-13T13:36:21;98053.47;;;28.01;40.48
28267;BME280;15525;45.568;5.448;2023-10-13T13:38:47;98061.06;;;28.18;40.12
28267;BME280;15525;45.568;5.448;2023-10-13T13:41:19;98073.59;;;28.70;39.71
28267;BME280;15525;45.568;5.448;2023-10-13T13:43:46;98047.81;;;29.20;38.69
28267;BME280;15525;45.568;5.448;2023-10-13T13:46:18;98050.56;;;29.23;38.73
28267;BME280;15525;45.568;5.448;2023-10-13T13:48:44;98046.09;;;28.87;39.10